Bequimao, Brazil
Current Conditions -  °F | °C
As of 3:00 PM on Thursday 30 Oct 2014 (Local Time) from SBSL Reporting Station
Few Clouds Few Clouds  
Wind Chill: 90°   Ceiling: Unl
Heat Index: 90°   Visibility: 6mi
Dew Point: 63°   Wind: 24mph
Humidity: 40%   Direction: 60°ENE
Pressure: 29.77"   Gusts: NA
Location:  2.45°S, 44.78°W
Report Text: SBSL 301800Z 06021KT 9999 FEW020 32/17 Q1008
Loading
Personal Weather Stations






























Interactive Weather Map
Tropical Storm Tracking
New forecast layout! Learn more

10-Day Weather Forecast

Advertisements
Track Severe Weather on mobile